Time;durP1;ratioP1;P1;durP2;ratioP2;P2;SDS_P1;SDS_P2;PMS_P1;PMS_P2;Temp;Humidity;BMP_temperature;BMP_pressure;BME280_temperature;BME280_humidity;BME280_pressure;Samples;Min_cycle;Max_cycle;Signal;HPM_P1;HPM_P2
2021/03/01 00:02:20;;;;;;;6.90;3.13;;;17.90;60.20;;;;;;5033599;28;20025;-56
2021/03/01 00:04:45;;;;;;;6.75;3.20;;;17.90;60.00;;;;;;5034011;28;20509;-56
2021/03/01 00:07:11;;;;;;;6.13;3.10;;;17.90;60.10;;;;;;5034204;28;20026;-56
2021/03/01 00:09:36;;;;;;;6.30;3.60;;;17.90;60.10;;;;;;5034052;28;20446;-56
2021/03/01 00:12:04;;;;;;;5.93;2.78;;;17.90;60.00;;;;;;5033756;28;20056;-55
2021/03/01 00:21:13;;;;;;;5.95;2.90;;;17.90;60.10;;;;;;5033454;28;20802;-55
2021/03/01 00:23:38;;;;;;;7.57;2.88;;;17.80;60.00;;;;;;5032648;28;20037;-55
2021/03/01 00:26:04;;;;;;;6.60;3.00;;;17.80;60.00;;;;;;5033460;28;20029;-56
2021/03/01 00:28:29;;;;;;;7.28;3.08;;;17.80;60.00;;;;;;5033734;28;20084;-56
2021/03/01 00:34:17;;;;;;;6.15;2.80;;;17.80;60.00;;;;;;5032580;28;20020;-56
2021/03/01 00:36:42;;;;;;;8.05;3.08;;;17.80;60.10;;;;;;5033351;28;20025;-55
2021/03/01 00:39:08;;;;;;;5.55;3.00;;;17.80;60.10;;;;;;5033436;28;20032;-56
2021/03/01 00:44:55;;;;;;;5.65;2.90;;;17.80;60.10;;;;;;5016198;28;20076;-56
2021/03/01 00:47:21;;;;;;;6.45;2.70;;;17.70;60.10;;;;;;5033346;28;20394;-55
2021/03/01 00:49:46;;;;;;;7.38;3.05;;;17.80;60.10;;;;;;5032973;28;20045;-55
2021/03/01 00:58:56;;;;;;;5.50;2.92;;;17.70;60.00;;;;;;5032136;28;20036;-55
2021/03/01 01:04:44;;;;;;;7.18;2.83;;;17.70;59.90;;;;;;5031815;28;20401;-56
2021/03/01 01:10:32;;;;;;;4.63;2.55;;;17.70;59.90;;;;;;5012519;28;20037;-56
2021/03/01 01:12:57;;;;;;;6.07;2.97;;;17.70;59.90;;;;;;5017470;28;20021;-53
2021/03/01 01:15:23;;;;;;;4.53;2.67;;;17.70;59.90;;;;;;5032660;28;20049;-55
2021/03/01 01:17:49;;;;;;;5.40;2.90;;;17.70;59.90;;;;;;5031998;28;20025;-55
2021/03/01 01:20:15;;;;;;;6.63;3.10;;;17.70;59.90;;;;;;5031756;28;20017;-55
2021/03/01 01:22:41;;;;;;;4.68;2.70;;;17.70;59.90;;;;;;5031498;28;20104;-55
2021/03/01 01:25:10;;;;;;;5.60;2.97;;;17.60;59.80;;;;;;5031985;28;20578;-56
2021/03/01 01:27:36;;;;;;;5.70;2.85;;;17.60;59.80;;;;;;5032276;28;20038;-55
2021/03/01 01:30:03;;;;;;;6.30;2.97;;;17.60;59.80;;;;;;5031698;28;20041;-56
2021/03/01 01:32:29;;;;;;;6.10;3.15;;;17.60;59.80;;;;;;5030673;28;20405;-56
2021/03/01 01:34:54;;;;;;;5.22;2.83;;;17.60;59.80;;;;;;5031001;28;20017;-56
2021/03/01 01:37:20;;;;;;;4.72;2.80;;;17.60;59.90;;;;;;5031209;28;20035;-55
2021/03/01 01:39:45;;;;;;;4.85;2.75;;;17.60;59.90;;;;;;5030776;28;20021;-55
2021/03/01 01:42:11;;;;;;;7.35;2.67;;;17.60;60.00;;;;;;5032574;28;20052;-57
2021/03/01 01:44:36;;;;;;;6.38;2.97;;;17.60;60.00;;;;;;5031513;28;20065;-55
2021/03/01 01:47:02;;;;;;;6.40;3.10;;;17.50;59.90;;;;;;5031245;28;20053;-56
2021/03/01 01:49:27;;;;;;;5.50;2.80;;;17.50;60.00;;;;;;5031516;28;20091;-56
2021/03/01 01:51:54;;;;;;;6.15;2.85;;;17.50;60.00;;;;;;5030995;28;20449;-55
2021/03/01 01:54:19;;;;;;;5.20;2.90;;;17.50;60.00;;;;;;5031610;28;20536;-56
2021/03/01 01:56:45;;;;;;;5.95;2.80;;;17.50;60.00;;;;;;5032061;28;20034;-55
2021/03/01 01:59:11;;;;;;;6.50;3.08;;;17.50;60.00;;;;;;5031726;28;20534;-55
2021/03/01 02:01:37;;;;;;;6.68;3.17;;;17.50;60.00;;;;;;5030363;28;20029;-54
2021/03/01 02:04:05;;;;;;;5.25;3.10;;;17.50;60.00;;;;;;5031910;28;20090;-55
2021/03/01 02:06:47;;;;;;;6.65;2.70;;;17.50;60.00;;;;;;5031971;28;20064;-56
2021/03/01 02:09:41;;;;;;;4.75;2.50;;;17.50;60.10;;;;;;5030230;28;20148;-55
2021/03/01 02:12:34;;;;;;;6.10;2.83;;;17.40;60.60;;;;;;5031534;28;20508;-55
2021/03/01 02:15:20;;;;;;;6.57;2.85;;;17.50;60.20;;;;;;5030425;28;20115;-55
2021/03/01 02:17:46;;;;;;;4.93;2.58;;;17.40;60.10;;;;;;5030877;28;20025;-55
2021/03/01 02:20:12;;;;;;;6.00;2.78;;;17.40;60.10;;;;;;5031261;28;20104;-55
2021/03/01 02:22:40;;;;;;;6.50;3.20;;;17.40;60.20;;;;;;5031161;28;20100;-56
2021/03/01 02:25:09;;;;;;;5.18;2.88;;;17.40;60.20;;;;;;5031273;28;20029;-55
2021/03/01 02:28:01;;;;;;;6.38;3.13;;;17.40;60.20;;;;;;5031443;28;20022;-55
2021/03/01 02:30:31;;;;;;;5.75;2.88;;;17.40;60.20;;;;;;5030187;28;20037;-56
2021/03/01 02:33:25;;;;;;;5.50;2.95;;;17.40;60.20;;;;;;5031011;28;20025;-53
2021/03/01 02:35:59;;;;;;;6.53;3.10;;;17.40;60.20;;;;;;5028867;28;20513;-55
2021/03/01 02:38:27;;;;;;;6.53;3.35;;;17.30;60.20;;;;;;5031306;28;20108;-55
2021/03/01 02:40:54;;;;;;;5.60;3.00;;;17.30;60.20;;;;;;5031281;28;20422;-55
2021/03/01 02:43:21;;;;;;;7.15;2.95;;;17.30;60.20;;;;;;5031010;28;20021;-55
2021/03/01 02:45:48;;;;;;;7.50;3.45;;;17.30;60.20;;;;;;5029967;28;20033;-55
2021/03/01 02:48:15;;;;;;;6.40;2.58;;;17.30;60.20;;;;;;5031007;28;20057;-55
2021/03/01 02:50:44;;;;;;;5.97;3.00;;;17.30;60.30;;;;;;5031424;28;20022;-53
2021/03/01 02:53:11;;;;;;;6.20;2.95;;;17.30;60.30;;;;;;5031105;28;20038;-54
2021/03/01 02:55:38;;;;;;;6.05;2.88;;;17.20;60.30;;;;;;5030986;28;20052;-55
2021/03/01 02:58:04;;;;;;;6.32;3.05;;;17.20;60.40;;;;;;5029666;28;20091;-56
2021/03/01 03:00:30;;;;;;;6.32;3.10;;;17.20;60.30;;;;;;5029853;28;20064;-55
2021/03/01 03:02:57;;;;;;;5.57;2.70;;;17.20;60.30;;;;;;5029653;28;20038;-55
2021/03/01 03:05:24;;;;;;;5.93;3.17;;;17.20;60.30;;;;;;5029952;28;20029;-55
2021/03/01 03:07:50;;;;;;;7.22;3.30;;;17.20;60.20;;;;;;5030896;28;20041;-56
2021/03/01 03:10:17;;;;;;;6.00;3.03;;;17.20;60.20;;;;;;5030929;28;20029;-55
2021/03/01 03:12:43;;;;;;;5.63;2.63;;;17.20;60.30;;;;;;5031008;28;20064;-55
2021/03/01 03:15:15;;;;;;;6.63;3.28;;;17.20;60.30;;;;;;5030942;28;20022;-55
2021/03/01 03:17:42;;;;;;;5.45;2.97;;;17.20;60.40;;;;;;5031029;28;20030;-55
2021/03/01 03:20:08;;;;;;;7.32;3.45;;;17.10;60.40;;;;;;5030957;28;20490;-54
2021/03/01 03:22:34;;;;;;;5.82;2.90;;;17.10;60.40;;;;;;5030963;28;20037;-56
2021/03/01 03:25:01;;;;;;;5.97;3.10;;;17.10;60.40;;;;;;5030648;28;20033;-55
2021/03/01 03:27:27;;;;;;;5.18;2.83;;;17.10;60.50;;;;;;5030831;28;20095;-55
2021/03/01 03:29:52;;;;;;;5.63;3.28;;;17.10;60.50;;;;;;5029045;28;20116;-55
2021/03/01 03:32:18;;;;;;;6.80;3.05;;;17.10;60.50;;;;;;5032722;28;20119;-55
2021/03/01 03:34:44;;;;;;;7.13;3.28;;;17.10;60.50;;;;;;5034571;28;20040;-55
2021/03/01 03:37:13;;;;;;;6.95;3.30;;;17.10;60.50;;;;;;5034351;28;20033;-55
2021/03/01 03:39:44;;;;;;;5.57;3.10;;;17.10;60.50;;;;;;5034547;28;20095;-56
2021/03/01 03:42:18;;;;;;;6.28;3.03;;;17.00;60.50;;;;;;5034832;28;20033;-55
2021/03/01 03:44:44;;;;;;;6.00;3.10;;;17.00;60.60;;;;;;5032229;28;20041;-56
2021/03/01 03:47:11;;;;;;;6.43;3.10;;;17.00;60.60;;;;;;5029565;28;20033;-55
2021/03/01 03:49:37;;;;;;;7.18;3.53;;;17.00;60.60;;;;;;5034125;28;20025;-55
2021/03/01 03:52:05;;;;;;;6.20;3.30;;;17.00;60.60;;;;;;5034327;28;20056;-55
2021/03/01 03:54:33;;;;;;;6.63;3.40;;;17.00;60.60;;;;;;5032322;28;20021;-56
2021/03/01 03:57:01;;;;;;;7.32;3.30;;;17.00;60.60;;;;;;5034564;28;20021;-56
2021/03/01 03:59:32;;;;;;;7.15;3.72;;;16.90;60.40;;;;;;5034143;28;20067;-55
2021/03/01 04:01:58;;;;;;;7.85;3.38;;;17.00;60.50;;;;;;5034014;28;20021;-55
2021/03/01 04:04:25;;;;;;;9.43;3.22;;;16.90;60.50;;;;;;5031506;28;20048;-56
2021/03/01 04:06:52;;;;;;;6.50;3.38;;;16.90;60.50;;;;;;5033793;28;20040;-56
2021/03/01 04:09:20;;;;;;;6.40;3.22;;;16.90;60.40;;;;;;5034154;28;20034;-56
2021/03/01 04:11:47;;;;;;;6.15;3.42;;;16.90;60.40;;;;;;5033491;28;20037;-55
2021/03/01 04:14:20;;;;;;;6.43;3.00;;;16.90;60.40;;;;;;5033590;28;20032;-55
2021/03/01 04:16:50;;;;;;;7.32;3.65;;;16.90;60.60;;;;;;5033834;28;20597;-55
2021/03/01 04:19:17;;;;;;;5.45;2.90;;;16.90;60.60;;;;;;5034131;28;20025;-56
2021/03/01 04:21:44;;;;;;;6.78;3.22;;;16.90;60.60;;;;;;5033956;28;20025;-55
2021/03/01 04:24:12;;;;;;;8.05;3.85;;;16.90;60.60;;;;;;5032842;28;20384;-56
2021/03/01 04:26:38;;;;;;;6.90;3.42;;;16.90;60.60;;;;;;5033925;28;20027;-56
2021/03/01 04:29:05;;;;;;;7.55;3.40;;;16.80;60.50;;;;;;5033326;28;20053;-55
2021/03/01 04:31:32;;;;;;;6.22;3.35;;;16.80;60.40;;;;;;5033099;28;20041;-55
2021/03/01 04:33:59;;;;;;;7.97;3.45;;;16.80;60.50;;;;;;5033293;28;20028;-55
2021/03/01 04:36:26;;;;;;;6.30;3.33;;;16.80;60.50;;;;;;5032115;28;20076;-55
2021/03/01 04:38:51;;;;;;;6.30;3.50;;;16.80;60.60;;;;;;5032659;28;20029;-55
2021/03/01 04:41:18;;;;;;;6.57;3.50;;;16.80;60.40;;;;;;5033709;28;20450;-56
2021/03/01 04:43:45;;;;;;;6.18;3.30;;;16.80;60.40;;;;;;5030973;28;20537;-56
2021/03/01 04:46:12;;;;;;;6.55;3.58;;;16.80;60.30;;;;;;5033446;28;20068;-55
2021/03/01 04:48:38;;;;;;;5.63;3.08;;;16.80;60.20;;;;;;5033221;28;20033;-55
2021/03/01 04:51:04;;;;;;;7.75;3.70;;;16.80;60.30;;;;;;5032045;28;20029;-56
2021/03/01 04:53:32;;;;;;;6.75;3.50;;;16.80;60.20;;;;;;5033142;28;20458;-55
2021/03/01 04:55:59;;;;;;;6.57;3.38;;;16.80;60.20;;;;;;5033298;28;20025;-55
2021/03/01 04:58:26;;;;;;;6.65;3.40;;;16.80;60.20;;;;;;5033009;28;20060;-55
2021/03/01 05:00:52;;;;;;;7.25;3.83;;;16.80;60.10;;;;;;5032449;28;20105;-56
2021/03/01 05:03:18;;;;;;;6.13;3.40;;;16.80;60.00;;;;;;5032099;28;20398;-56
2021/03/01 05:05:44;;;;;;;5.72;3.28;;;16.80;60.10;;;;;;5033279;28;20026;-55
2021/03/01 05:08:17;;;;;;;7.93;3.40;;;16.80;60.10;;;;;;5033092;28;20106;-55
2021/03/01 05:10:44;;;;;;;8.30;3.67;;;16.70;60.10;;;;;;5031674;28;20441;-56
2021/03/01 05:13:10;;;;;;;6.75;3.60;;;16.70;60.10;;;;;;5030904;28;20140;-55
2021/03/01 05:15:35;;;;;;;7.30;3.53;;;16.80;60.20;;;;;;5032822;28;20522;-55
2021/03/01 05:18:02;;;;;;;8.60;3.40;;;16.80;60.10;;;;;;5026289;28;20044;-59
2021/03/01 05:20:27;;;;;;;6.80;3.40;;;16.70;60.10;;;;;;5030743;28;20031;-56
2021/03/01 05:22:53;;;;;;;6.75;3.60;;;16.70;60.20;;;;;;5021889;28;20124;-55
2021/03/01 05:25:19;;;;;;;8.20;3.50;;;16.70;60.20;;;;;;5025772;28;20573;-55
2021/03/01 05:27:44;;;;;;;8.55;3.72;;;16.80;60.20;;;;;;5025542;28;21945;-55
2021/03/01 05:30:11;;;;;;;7.90;3.85;;;16.70;60.20;;;;;;5026971;28;20125;-55
2021/03/01 05:32:37;;;;;;;9.10;3.78;;;16.70;60.20;;;;;;5031162;28;20102;-55
2021/03/01 05:35:04;;;;;;;7.82;3.72;;;16.70;60.10;;;;;;5031416;28;20116;-55
2021/03/01 05:37:30;;;;;;;9.40;4.53;;;16.70;60.10;;;;;;5031569;28;20430;-55
2021/03/01 05:39:56;;;;;;;7.30;3.78;;;16.70;60.00;;;;;;5032147;28;20034;-55
2021/03/01 05:42:25;;;;;;;7.38;3.97;;;16.70;60.00;;;;;;5019279;28;20018;-55
2021/03/01 05:44:50;;;;;;;8.52;4.03;;;16.70;60.00;;;;;;5030100;28;20040;-55
2021/03/01 05:47:18;;;;;;;9.02;4.00;;;16.70;60.00;;;;;;5028621;28;20017;-55
2021/03/01 05:49:44;;;;;;;9.43;4.22;;;16.70;60.10;;;;;;5027171;28;20033;-54
2021/03/01 05:52:14;;;;;;;7.88;3.92;;;16.70;60.20;;;;;;5010892;28;20030;-55
2021/03/01 05:54:41;;;;;;;8.60;4.03;;;16.70;60.20;;;;;;5030147;28;20057;-54
2021/03/01 05:57:07;;;;;;;9.90;4.40;;;16.70;60.30;;;;;;5031396;28;20030;-55
2021/03/01 05:59:33;;;;;;;8.25;4.25;;;16.70;60.30;;;;;;5031784;28;20028;-55
2021/03/01 06:01:59;;;;;;;8.23;4.10;;;16.60;60.20;;;;;;5027569;28;20021;-58
2021/03/01 06:04:28;;;;;;;8.02;4.70;;;16.60;60.20;;;;;;5029740;28;20409;-55
2021/03/01 06:06:54;;;;;;;7.47;4.03;;;16.60;60.20;;;;;;5031813;28;20056;-55
2021/03/01 06:09:21;;;;;;;9.50;4.22;;;16.60;60.10;;;;;;5031866;28;20513;-55
2021/03/01 06:11:54;;;;;;;8.77;4.30;;;16.60;60.10;;;;;;5029913;28;20554;-55
2021/03/01 06:14:20;;;;;;;8.82;4.45;;;16.60;60.10;;;;;;5020572;28;20030;-56
2021/03/01 06:17:11;;;;;;;7.80;4.13;;;16.60;60.10;;;;;;5027050;28;20052;-55
2021/03/01 06:19:51;;;;;;;8.10;4.20;;;16.60;60.00;;;;;;5019818;28;20043;-55
2021/03/01 06:22:20;;;;;;;8.38;4.38;;;16.60;60.00;;;;;;5030996;28;20041;-55
2021/03/01 06:25:05;;;;;;;8.05;4.40;;;16.60;60.00;;;;;;5027956;28;20029;-55
2021/03/01 06:27:31;;;;;;;14.02;4.72;;;16.60;60.10;;;;;;5031388;28;20059;-54
2021/03/01 06:30:10;;;;;;;12.68;4.97;;;16.60;60.10;;;;;;5031494;28;20037;-55
2021/03/01 06:32:36;;;;;;;10.55;4.80;;;16.60;60.30;;;;;;5030207;28;20068;-54
2021/03/01 06:35:03;;;;;;;10.10;4.90;;;16.60;60.50;;;;;;5020236;28;20048;-55
2021/03/01 06:37:29;;;;;;;12.93;4.95;;;16.60;60.80;;;;;;5031189;28;20100;-55
2021/03/01 06:39:55;;;;;;;17.38;5.03;;;16.60;60.90;;;;;;5030075;28;20108;-56
2021/03/01 06:42:26;;;;;;;9.18;4.35;;;16.60;60.80;;;;;;5030792;28;20026;-55
2021/03/01 06:44:58;;;;;;;11.70;4.70;;;16.60;60.80;;;;;;5029980;28;20031;-55
2021/03/01 06:47:48;;;;;;;10.90;4.85;;;16.50;60.70;;;;;;5031601;28;20351;-55
2021/03/01 06:50:33;;;;;;;10.00;4.30;;;16.50;60.80;;;;;;5030333;28;20117;-55
2021/03/01 06:53:01;;;;;;;9.45;4.00;;;16.60;60.90;;;;;;5029885;28;20653;-55
2021/03/01 06:55:27;;;;;;;9.27;4.32;;;16.50;60.90;;;;;;5031566;28;20100;-55
2021/03/01 06:57:53;;;;;;;11.23;4.55;;;16.50;60.90;;;;;;5031619;28;20076;-55
2021/03/01 07:00:27;;;;;;;9.55;4.57;;;16.50;60.80;;;;;;5030043;28;20430;-55
2021/03/01 07:02:54;;;;;;;8.63;3.92;;;16.50;60.80;;;;;;5031402;28;20037;-54
2021/03/01 07:05:21;;;;;;;9.63;4.72;;;16.50;60.90;;;;;;5029689;28;20034;-55
2021/03/01 07:07:46;;;;;;;9.25;4.35;;;16.60;61.00;;;;;;5034662;28;20120;-55
2021/03/01 07:10:12;;;;;;;11.68;4.97;;;16.50;61.60;;;;;;5034267;28;20049;-55
2021/03/01 07:12:51;;;;;;;11.48;4.53;;;16.50;60.90;;;;;;5033969;28;20025;-55
2021/03/01 07:15:17;;;;;;;16.42;4.82;;;16.50;61.10;;;;;;5035167;28;20025;-55
2021/03/01 07:17:45;;;;;;;13.20;5.25;;;16.50;61.10;;;;;;5035228;28;20018;-54
2021/03/01 07:20:12;;;;;;;10.57;4.78;;;16.50;61.00;;;;;;5034003;28;20033;-55
2021/03/01 07:22:40;;;;;;;12.90;5.13;;;16.50;61.10;;;;;;5035227;28;20036;-55
2021/03/01 07:25:07;;;;;;;10.55;5.15;;;16.50;61.10;;;;;;5034719;28;20067;-55
2021/03/01 07:27:39;;;;;;;17.20;4.85;;;16.50;61.00;;;;;;5035021;28;20260;-55
2021/03/01 07:30:06;;;;;;;12.43;4.78;;;16.50;61.00;;;;;;5034991;28;20057;-55
2021/03/01 07:32:34;;;;;;;27.23;5.70;;;16.50;61.00;;;;;;5034886;28;20090;-54
2021/03/01 07:35:01;;;;;;;30.25;5.78;;;16.50;60.90;;;;;;5035009;28;20428;-55
2021/03/01 07:37:27;;;;;;;18.15;5.65;;;16.50;61.00;;;;;;5034661;28;20022;-55
2021/03/01 07:39:53;;;;;;;14.82;5.07;;;16.50;61.00;;;;;;5034510;28;20029;-55
2021/03/01 07:42:19;;;;;;;19.17;5.63;;;16.50;61.10;;;;;;5034774;28;20033;-55
2021/03/01 07:44:47;;;;;;;16.10;5.25;;;16.40;61.10;;;;;;5033986;28;20052;-55
2021/03/01 07:47:13;;;;;;;13.93;4.72;;;16.40;61.20;;;;;;5034647;28;20018;-55
2021/03/01 07:49:48;;;;;;;19.02;5.05;;;16.50;61.00;;;;;;5034700;28;20055;-55
2021/03/01 07:52:20;;;;;;;13.18;4.78;;;16.50;60.90;;;;;;5034614;28;20049;-55
2021/03/01 07:54:51;;;;;;;;;;;16.50;60.70;;;;;;5034739;28;20029;-55
2021/03/01 07:57:18;;;;;;;11.65;4.65;;;16.50;60.50;;;;;;5034390;28;19941;-55
2021/03/01 07:59:43;;;;;;;13.30;4.60;;;16.50;60.30;;;;;;5032939;28;20498;-55
2021/03/01 08:02:11;;;;;;;9.43;4.55;;;16.50;60.30;;;;;;5034489;28;20108;-55
2021/03/01 08:04:37;;;;;;;10.27;4.90;;;16.50;60.30;;;;;;5034134;28;20022;-55
2021/03/01 08:07:03;;;;;;;11.27;4.55;;;16.50;60.30;;;;;;5034485;28;20032;-55
2021/03/01 08:09:49;;;;;;;13.80;4.70;;;16.40;60.20;;;;;;5034135;28;20032;-55
2021/03/01 08:12:34;;;;;;;17.95;5.70;;;16.40;60.30;;;;;;5034137;28;20025;-55
2021/03/01 08:15:05;;;;;;;16.25;5.35;;;16.40;60.30;;;;;;5033953;28;20021;-55
2021/03/01 08:17:32;;;;;;;15.50;5.85;;;16.40;60.30;;;;;;5033107;28;20104;-56
2021/03/01 08:20:01;;;;;;;12.55;5.38;;;16.40;60.30;;;;;;5034061;28;20517;-55
2021/03/01 08:22:26;;;;;;;15.98;5.32;;;16.40;60.30;;;;;;5032801;28;20125;-55
2021/03/01 08:24:57;;;;;;;14.77;5.30;;;16.40;60.40;;;;;;5033788;28;20488;-56
2021/03/01 08:27:25;;;;;;;10.63;4.85;;;16.40;60.40;;;;;;5034025;28;20029;-55
2021/03/01 08:30:22;;;;;;;13.13;4.75;;;16.30;60.40;;;;;;5032636;28;20037;-55
2021/03/01 08:33:14;;;;;;;13.32;5.10;;;16.40;60.60;;;;;;5033716;28;20517;-55
2021/03/01 08:35:51;;;;;;;10.52;4.45;;;16.30;60.60;;;;;;5033576;28;20021;-55
2021/03/01 08:38:41;;;;;;;10.05;4.10;;;16.30;61.10;;;;;;5033716;28;20036;-55
2021/03/01 08:41:09;;;;;;;9.43;4.82;;;16.30;60.60;;;;;;5033880;28;20519;-55
2021/03/01 08:43:45;;;;;;;11.75;4.50;;;16.30;60.50;;;;;;5016235;28;20038;-55
2021/03/01 08:46:14;;;;;;;11.93;4.93;;;16.30;60.40;;;;;;5012623;28;20079;-54
2021/03/01 08:48:41;;;;;;;12.90;5.00;;;16.30;60.30;;;;;;5012189;28;20068;-55
2021/03/01 08:51:11;;;;;;;11.80;4.80;;;16.30;60.10;;;;;;5013736;28;20601;-55
2021/03/01 08:53:37;;;;;;;13.98;5.30;;;16.40;60.10;;;;;;5013389;28;20105;-56
2021/03/01 08:56:03;;;;;;;11.90;4.18;;;16.30;60.00;;;;;;5013632;28;20022;-55
2021/03/01 08:58:34;;;;;;;9.35;4.35;;;16.30;60.10;;;;;;5012242;28;20033;-55
2021/03/01 09:01:02;;;;;;;9.80;4.15;;;16.30;60.20;;;;;;5013364;28;20386;-56
2021/03/01 09:03:32;;;;;;;9.65;4.20;;;16.30;60.10;;;;;;5013238;28;20026;-56
2021/03/01 09:06:08;;;;;;;9.70;4.65;;;16.30;60.10;;;;;;5013588;28;20022;-55
2021/03/01 09:08:35;;;;;;;10.85;4.63;;;16.30;60.10;;;;;;5013554;28;20033;-55
2021/03/01 09:11:04;;;;;;;8.55;4.80;;;16.30;60.10;;;;;;5013873;28;20420;-57
2021/03/01 09:13:32;;;;;;;9.45;4.63;;;16.30;59.90;;;;;;5012973;28;20072;-55
2021/03/01 09:16:24;;;;;;;9.57;4.32;;;16.30;59.90;;;;;;5013351;28;20025;-55
2021/03/01 09:18:52;;;;;;;9.38;4.60;;;16.30;59.80;;;;;;5013376;28;20493;-55
2021/03/01 09:21:19;;;;;;;11.73;4.63;;;16.30;59.80;;;;;;5013206;28;20030;-55
2021/03/01 09:23:50;;;;;;;9.63;4.30;;;16.30;59.70;;;;;;5012982;28;20029;-55
2021/03/01 09:26:30;;;;;;;8.57;4.43;;;16.30;59.80;;;;;;5013091;28;20018;-55
2021/03/01 09:29:09;;;;;;;9.73;4.45;;;16.30;59.80;;;;;;5012833;28;20797;-55
2021/03/01 09:31:40;;;;;;;8.85;4.45;;;16.30;59.80;;;;;;5013019;28;20395;-55
2021/03/01 09:34:10;;;;;;;8.27;3.78;;;16.30;59.80;;;;;;5012714;28;20438;-55
2021/03/01 09:36:36;;;;;;;9.95;4.80;;;16.30;59.70;;;;;;5013363;28;20480;-55
2021/03/01 09:39:05;;;;;;;9.13;4.35;;;16.30;59.70;;;;;;5011608;28;20561;-55
2021/03/01 09:41:38;;;;;;;8.10;4.10;;;16.30;59.70;;;;;;5012847;28;20105;-56
2021/03/01 09:44:04;;;;;;;9.27;4.32;;;16.30;59.60;;;;;;5012498;28;20029;-55
2021/03/01 09:46:31;;;;;;;8.32;4.20;;;16.30;59.50;;;;;;5011507;28;20030;-55
2021/03/01 09:49:01;;;;;;;7.57;4.00;;;16.30;59.40;;;;;;5012683;28;20053;-56
2021/03/01 09:51:28;;;;;;;7.95;3.85;;;16.30;59.30;;;;;;5012625;28;20026;-55
2021/03/01 09:54:04;;;;;;;7.25;3.90;;;16.30;59.30;;;;;;5012465;28;20030;-55
2021/03/01 09:56:44;;;;;;;8.13;4.40;;;16.30;59.30;;;;;;5011354;28;20046;-55
2021/03/01 09:59:11;;;;;;;9.23;4.10;;;16.30;59.30;;;;;;5012283;28;20064;-55
2021/03/01 10:01:37;;;;;;;8.15;4.35;;;16.30;59.20;;;;;;5012537;28;20033;-55
2021/03/01 10:04:03;;;;;;;8.15;4.30;;;16.30;59.20;;;;;;5012385;28;20053;-55
2021/03/01 10:06:35;;;;;;;9.85;4.43;;;16.30;59.20;;;;;;5012567;28;20065;-55
2021/03/01 10:09:03;;;;;;;7.88;4.15;;;16.30;59.10;;;;;;5012424;28;20018;-55
2021/03/01 10:11:28;;;;;;;9.23;4.38;;;16.30;59.00;;;;;;5012219;28;20026;-55
2021/03/01 10:14:05;;;;;;;8.55;4.38;;;16.30;58.90;;;;;;5012154;28;20029;-55
2021/03/01 10:16:33;;;;;;;8.55;4.45;;;16.30;59.00;;;;;;5012718;28;20029;-55
2021/03/01 10:19:19;;;;;;;9.18;4.45;;;16.30;58.90;;;;;;5012299;28;20018;-55
2021/03/01 10:21:49;;;;;;;8.50;4.30;;;16.30;59.00;;;;;;5011008;28;20029;-55
2021/03/01 10:24:20;;;;;;;8.73;4.13;;;16.30;58.90;;;;;;5010667;28;20545;-55
2021/03/01 10:26:57;;;;;;;8.60;4.03;;;16.40;58.80;;;;;;5012298;28;20064;-55
2021/03/01 10:29:40;;;;;;;8.07;3.90;;;16.40;58.70;;;;;;5011984;28;20061;-55
2021/03/01 10:32:26;;;;;;;8.43;4.13;;;16.40;58.70;;;;;;5010692;28;20035;-56
2021/03/01 10:34:53;;;;;;;7.82;4.35;;;16.30;58.60;;;;;;5010688;28;20464;-55
2021/03/01 10:37:24;;;;;;;7.40;3.88;;;16.40;58.60;;;;;;5012069;28;20044;-55
2021/03/01 10:39:50;;;;;;;7.35;3.72;;;16.40;58.60;;;;;;5011968;28;20097;-54
2021/03/01 10:42:19;;;;;;;7.55;3.80;;;16.40;58.60;;;;;;5011584;28;20487;-55
2021/03/01 10:44:52;;;;;;;6.68;3.80;;;16.40;58.70;;;;;;5011452;28;20468;-55
2021/03/01 10:47:25;;;;;;;7.68;4.13;;;16.30;58.70;;;;;;5027613;28;20079;-55
2021/03/01 10:49:53;;;;;;;6.90;3.83;;;16.30;58.60;;;;;;5028299;28;20032;-56
2021/03/01 10:52:20;;;;;;;6.97;4.05;;;16.30;58.50;;;;;;5020213;28;20043;-54
2021/03/01 10:54:46;;;;;;;9.63;4.22;;;16.40;58.40;;;;;;5017855;28;20032;-55
2021/03/01 10:57:12;;;;;;;11.32;4.55;;;16.40;58.30;;;;;;5019092;28;20025;-55
2021/03/01 10:59:38;;;;;;;9.45;4.00;;;16.50;58.20;;;;;;5017677;28;20033;-55
2021/03/01 11:02:04;;;;;;;10.00;4.55;;;16.50;58.20;;;;;;5023526;28;20030;-54
2021/03/01 11:04:30;;;;;;;28.50;9.55;;;16.60;58.20;;;;;;5018048;28;21006;-54
2021/03/01 11:06:55;;;;;;;29.35;10.38;;;16.60;58.30;;;;;;5023987;28;20029;-55
2021/03/01 11:09:21;;;;;;;33.38;10.48;;;16.60;58.40;;;;;;5011603;28;20093;-54
2021/03/01 11:11:52;;;;;;;25.58;8.70;;;16.70;58.90;;;;;;5016485;28;20022;-55
2021/03/01 11:14:19;;;;;;;23.10;8.45;;;16.70;59.10;;;;;;5012387;28;20022;-55
2021/03/01 11:16:44;;;;;;;20.88;7.97;;;16.80;59.70;;;;;;5009944;28;20084;-55
2021/03/01 11:19:12;;;;;;;22.33;8.13;;;16.80;60.10;;;;;;5011512;28;20395;-55
2021/03/01 11:21:37;;;;;;;20.17;7.70;;;16.80;60.30;;;;;;5025229;28;20372;-55
2021/03/01 11:24:05;;;;;;;17.33;8.20;;;16.80;60.00;;;;;;5014394;28;20117;-55
2021/03/01 11:26:31;;;;;;;54.67;41.25;;;17.00;60.30;;;;;;5017896;28;20022;-55
2021/03/01 11:28:57;;;;;;;55.85;43.45;;;17.10;59.90;;;;;;5010517;28;20071;-55
2021/03/01 11:31:23;;;;;;;28.90;16.90;;;17.00;60.40;;;;;;5009268;28;20088;-55
2021/03/01 11:33:49;;;;;;;31.17;13.73;;;17.10;60.50;;;;;;5021713;28;20083;-56
2021/03/01 11:36:14;;;;;;;31.40;11.70;;;17.10;60.90;;;;;;5022779;28;20499;-54
2021/03/01 11:38:40;;;;;;;25.50;10.70;;;17.20;60.60;;;;;;5023880;28;20037;-56
2021/03/01 11:41:06;;;;;;;38.72;11.77;;;17.30;60.40;;;;;;5035507;28;20043;-58
2021/03/01 11:43:33;;;;;;;21.85;10.70;;;17.50;60.90;;;;;;5048984;28;20031;-56
2021/03/01 11:45:58;;;;;;;22.30;11.02;;;18.30;61.40;;;;;;5023851;28;20040;-59
2021/03/01 11:48:24;;;;;;;20.95;10.35;;;18.80;59.90;;;;;;5031481;28;20029;-57
2021/03/01 11:50:51;;;;;;;19.33;9.65;;;18.40;58.10;;;;;;5031694;28;20034;-54
2021/03/01 11:53:16;;;;;;;21.58;9.98;;;17.90;59.70;;;;;;5028027;28;20486;-53
2021/03/01 11:55:43;;;;;;;26.60;9.30;;;17.70;60.50;;;;;;5025245;28;20033;-52
2021/03/01 11:58:09;;;;;;;17.08;8.98;;;17.60;60.70;;;;;;5038491;28;20036;-55
2021/03/01 12:00:35;;;;;;;20.75;8.60;;;17.50;60.70;;;;;;5040181;28;20387;-53
2021/03/01 12:03:01;;;;;;;15.73;7.53;;;17.60;60.70;;;;;;5033633;28;20028;-54
2021/03/01 12:05:27;;;;;;;22.05;8.68;;;17.60;60.50;;;;;;5023980;28;20026;-53
2021/03/01 12:07:52;;;;;;;15.63;7.32;;;17.60;60.60;;;;;;5037860;28;20032;-53
2021/03/01 12:10:18;;;;;;;19.63;7.60;;;17.60;60.10;;;;;;5016471;28;20026;-54
2021/03/01 12:12:43;;;;;;;16.13;7.07;;;17.60;60.00;;;;;;5024400;28;20057;-54
2021/03/01 12:15:10;;;;;;;16.02;7.32;;;17.70;60.00;;;;;;5039292;28;20101;-53
2021/03/01 12:17:36;;;;;;;14.60;6.85;;;17.60;59.90;;;;;;5045763;28;20025;-53
2021/03/01 12:20:04;;;;;;;13.18;7.18;;;17.60;60.00;;;;;;5026453;28;20032;-53
2021/03/01 12:22:30;;;;;;;13.20;7.15;;;17.70;60.00;;;;;;5044362;28;20033;-54
2021/03/01 12:24:55;;;;;;;12.98;6.97;;;17.80;59.80;;;;;;5044993;28;20433;-54
2021/03/01 12:27:21;;;;;;;29.20;7.88;;;17.90;59.70;;;;;;5018860;28;20102;-53
2021/03/01 12:29:46;;;;;;;15.18;6.70;;;18.00;59.80;;;;;;5036061;28;20103;-52
2021/03/01 12:32:12;;;;;;;15.98;6.70;;;18.10;59.30;;;;;;5025475;28;20104;-53
2021/03/01 12:34:40;;;;;;;12.98;6.25;;;18.20;59.30;;;;;;5024870;28;20103;-56
2021/03/01 12:37:08;;;;;;;22.30;6.65;;;18.30;59.20;;;;;;5023496;28;20068;-54
2021/03/01 12:39:33;;;;;;;20.33;7.30;;;18.40;59.20;;;;;;5029073;28;20030;-55
2021/03/01 12:41:59;;;;;;;14.48;6.90;;;18.50;58.80;;;;;;5033142;28;20026;-54
2021/03/01 12:44:24;;;;;;;14.63;6.45;;;18.60;58.50;;;;;;5030201;28;20033;-54
2021/03/01 12:46:50;;;;;;;22.85;6.43;;;18.70;58.50;;;;;;5032263;28;20029;-51
2021/03/01 12:49:15;;;;;;;24.10;6.97;;;18.80;58.50;;;;;;5041147;28;20025;-55
2021/03/01 12:51:42;;;;;;;19.25;6.47;;;18.80;58.00;;;;;;5021017;28;20025;-55
2021/03/01 12:54:08;;;;;;;17.73;6.60;;;18.70;58.00;;;;;;5015544;28;20030;-53
2021/03/01 12:56:34;;;;;;;16.83;6.45;;;18.70;58.20;;;;;;5016290;28;20026;-54
2021/03/01 12:59:00;;;;;;;21.33;7.38;;;18.70;58.40;;;;;;5016557;28;20410;-54
2021/03/01 13:01:25;;;;;;;15.05;7.05;;;18.70;58.60;;;;;;5024972;28;20117;-54
2021/03/01 13:03:57;;;;;;;21.85;7.22;;;18.70;58.70;;;;;;5019472;28;20427;-56
2021/03/01 13:06:22;;;;;;;13.38;6.82;;;18.70;58.60;;;;;;5019260;28;20108;-54
2021/03/01 13:08:48;;;;;;;19.25;7.63;;;18.70;58.60;;;;;;5031578;28;20574;-54
2021/03/01 13:11:13;;;;;;;17.45;6.32;;;18.70;58.40;;;;;;5029663;28;20022;-54
2021/03/01 13:13:39;;;;;;;17.25;7.72;;;18.70;58.10;;;;;;5029123;28;20081;-55
2021/03/01 13:16:04;;;;;;;15.90;7.38;;;18.70;58.20;;;;;;5014613;28;20030;-55
2021/03/01 13:18:30;;;;;;;16.20;7.50;;;18.70;58.20;;;;;;5023430;28;20040;-54